Terminal Aerodrome Forecast
Issued by NWS

Home | Current Version | Previous Version | Text Only | Print | Product List | Glossary On
Versions: 1 2 3 4 5 6 7 8 9 10 11 12 13 14
000
FTUS41 KPBZ 220520
TAFMGW
TAF
KMGW 220520Z 2206/2306 18004KT P6SM BKN250
     FM221900 22011G21KT P6SM VCTS BKN050CB
     FM222200 22010G20KT 6SM -SHRA VCTS OVC035CB
     FM230400 22005KT P6SM VCSH OVC025=

USA.gov is the U.S. government's official web portal to all federal, state and local government web resources and services.